Time;durP1;ratioP1;P1;durP2;ratioP2;P2;SDS_P1;SDS_P2;PMS_P1;PMS_P2;Temp;Humidity;BMP_temperature;BMP_pressure;BME280_temperature;BME280_humidity;BME280_pressure;Samples;Min_cycle;Max_cycle;Signal;HPM_P1;HPM_P2
2023/01/09 00:01:26;;;;;;;;;0.75;0.00;;;;;8.86;67.44;99169.44;6302658;22;46161;-78
2023/01/09 00:03:51;;;;;;;;;0.00;0.00;;;;;8.78;67.45;99158.84;6275256;22;45780;-81
2023/01/09 00:06:17;;;;;;;;;1.25;0.00;;;;;8.89;67.67;99174.41;6303463;22;45466;-79
2023/01/09 00:08:42;;;;;;;;;0.25;0.00;;;;;8.88;67.46;99180.59;6303015;22;46304;-81
2023/01/09 00:11:08;;;;;;;;;1.00;0.00;;;;;8.86;67.61;99185.13;6304987;22;46043;-82
2023/01/09 00:13:34;;;;;;;;;2.00;0.00;;;;;8.81;67.59;99175.06;6278090;22;45528;-80
2023/01/09 00:15:59;;;;;;;;;3.75;0.00;;;;;8.87;67.76;99193.78;6308161;22;45514;-80
2023/01/09 00:18:27;;;;;;;;;1.00;0.00;;;;;8.86;67.61;99198.16;6307937;22;46161;-81
2023/01/09 00:20:53;;;;;;;;;0.00;0.00;;;;;8.66;67.62;99171.19;6308959;22;45592;-79
2023/01/09 00:23:18;;;;;;;;;1.00;0.00;;;;;8.73;67.71;99187.97;6307129;22;45551;-82
2023/01/09 00:25:44;;;;;;;;;0.00;0.00;;;;;8.80;67.72;99204.75;6307250;22;45372;-81
2023/01/09 00:28:09;;;;;;;;;2.75;1.00;;;;;8.78;67.64;99195.41;6306300;22;46293;-78
2023/01/09 00:30:34;;;;;;;;;1.00;0.00;;;;;8.57;67.78;99166.75;6306134;22;46165;-79
2023/01/09 00:33:00;;;;;;;;;1.00;0.25;;;;;8.74;68.00;99199.25;6304651;22;45663;-82
2023/01/09 00:35:30;;;;;;;;;1.25;0.25;;;;;8.73;67.95;99202.81;6302534;22;45410;-82
2023/01/09 00:37:55;;;;;;;;;0.00;0.00;;;;;8.65;68.04;99185.19;6302230;22;46341;-79
2023/01/09 00:40:21;;;;;;;;;0.00;0.00;;;;;8.74;67.97;99181.81;6302101;22;46042;-78
2023/01/09 00:42:52;;;;;;;;;0.00;0.00;;;;;8.75;67.78;99182.59;6303093;22;45754;-82
2023/01/09 00:45:27;;;;;;;;;1.00;0.00;;;;;8.73;67.82;99181.94;6303042;22;45507;-81
2023/01/09 00:47:54;;;;;;;;;0.00;0.00;;;;;8.68;67.91;99177.09;6302643;22;46382;-82
2023/01/09 00:50:28;;;;;;;;;1.00;0.50;;;;;8.63;68.06;99184.50;6302057;22;46242;-80
2023/01/09 00:52:55;;;;;;;;;2.25;0.00;;;;;8.70;67.99;99187.41;6303250;22;45664;-82
2023/01/09 00:55:21;;;;;;;;;1.00;0.00;;;;;8.74;67.94;99201.88;6275514;22;45545;-80
2023/01/09 00:57:48;;;;;;;;;1.00;0.00;;;;;8.66;67.95;99201.69;6303857;22;46825;-82
2023/01/09 01:03:34;;;;;;;;;0.00;0.00;;;;;8.76;67.87;99198.16;6117855;23;45897;-82
2023/01/09 01:12:47;;;;;;;;;1.00;0.00;;;;;8.58;67.94;99183.25;6058133;23;46020;-81
2023/01/09 01:15:17;;;;;;;;;0.25;0.25;;;;;8.79;67.75;99212.72;6006064;23;45668;-83
2023/01/09 01:17:48;;;;;;;;;0.00;0.00;;;;;8.45;67.90;99157.38;6054834;23;45536;-80
2023/01/09 01:20:17;;;;;;;;;0.25;0.00;;;;;8.61;67.50;99193.41;6054528;23;47096;-83
2023/01/09 01:26:13;;;;;;;;;1.00;0.00;;;;;8.71;67.87;99195.09;6059741;23;45802;-81
2023/01/09 01:28:42;;;;;;;;;0.75;0.00;;;;;8.68;67.76;99192.78;6063659;23;45597;-80
2023/01/09 01:31:15;;;;;;;;;2.00;0.00;;;;;8.68;67.61;99192.78;6036812;23;47836;-84
2023/01/09 01:33:41;;;;;;;;;6.50;1.00;;;;;8.75;67.97;99227.00;6032143;23;46194;-79
2023/01/09 01:36:08;;;;;;;;;3.00;0.00;;;;;8.66;67.83;99217.34;6030202;23;45672;-78
2023/01/09 01:41:55;;;;;;;;;0.25;0.00;;;;;8.63;67.99;99231.50;6172512;22;45869;-82
2023/01/09 01:44:57;;;;;;;;;0.00;0.00;;;;;8.67;68.29;99245.94;6172926;23;46145;-80
2023/01/09 01:47:47;;;;;;;;;1.00;0.75;;;;;8.64;68.11;99234.91;6172588;23;45725;-81
2023/01/09 01:50:12;;;;;;;;;1.00;1.00;;;;;8.64;68.25;99230.53;6266396;22;45544;-78
2023/01/09 01:52:38;;;;;;;;;1.67;0.00;;;;;8.65;68.30;99237.41;6266459;22;46648;-82
2023/01/09 01:55:07;;;;;;;;;1.50;0.00;;;;;8.63;68.40;99225.44;6266306;22;46751;-80
2023/01/09 01:57:36;;;;;;;;;0.00;0.00;;;;;8.68;68.28;99238.94;6267208;22;45560;-79
2023/01/09 02:00:03;;;;;;;;;1.75;0.00;;;;;8.68;68.54;99236.31;6268273;22;45628;-80
2023/01/09 02:02:42;;;;;;;;;0.50;0.00;;;;;8.60;68.31;99218.69;6271652;22;47000;-80
2023/01/09 02:05:08;;;;;;;;;1.00;0.00;;;;;8.47;68.18;99204.22;6271089;22;47096;-82
2023/01/09 02:07:33;;;;;;;;;0.00;0.00;;;;;8.50;68.42;99196.94;6272228;22;45741;-82
2023/01/09 02:10:03;;;;;;;;;1.00;0.00;;;;;8.73;68.39;99249.81;6272965;22;45565;-81
2023/01/09 02:12:34;;;;;;;;;0.00;0.00;;;;;8.04;68.34;99132.16;6250403;22;46890;-82
2023/01/09 02:15:12;;;;;;;;;1.75;0.00;;;;;8.10;68.40;99152.50;6277058;22;45926;-83
2023/01/09 02:17:56;;;;;;;;;0.00;0.00;;;;;8.68;68.58;99255.44;6301568;22;45988;-82
2023/01/09 02:20:38;;;;;;;;;4.50;1.00;;;;;8.66;68.50;99253.91;6303347;22;45554;-82
2023/01/09 02:23:41;;;;;;;;;0.00;0.00;;;;;8.65;68.71;99241.78;6303138;22;46237;-82
2023/01/09 02:26:34;;;;;;;;;0.00;0.00;;;;;8.67;68.74;99242.50;6301403;22;47314;-82
2023/01/09 02:29:17;;;;;;;;;0.00;0.00;;;;;8.68;68.67;99244.16;6301651;22;45727;-83
2023/01/09 02:31:51;;;;;;;;;1.00;0.00;;;;;8.61;68.66;99228.19;6274307;22;45518;-82
2023/01/09 02:34:42;;;;;;;;;1.00;0.00;;;;;8.70;68.91;99256.09;6274113;22;47399;-82
2023/01/09 02:37:23;;;;;;;;;1.75;0.00;;;;;8.43;68.75;99222.72;6248437;22;47716;-82
2023/01/09 02:40:06;;;;;;;;;1.00;0.00;;;;;8.76;68.66;99273.03;6301940;22;45611;-83
2023/01/09 02:42:35;;;;;;;;;0.00;0.00;;;;;8.70;68.77;99269.16;6302566;22;45605;-79
2023/01/09 02:45:00;;;;;;;;;2.00;0.50;;;;;8.69;68.82;99264.88;6302033;22;46609;-81
2023/01/09 02:47:39;;;;;;;;;1.75;0.75;;;;;8.73;68.77;99271.53;6302906;22;45490;-80
2023/01/09 02:54:33;;;;;;;;;1.00;0.25;;;;;8.77;69.05;99275.53;6178768;23;45918;-80
2023/01/09 02:56:58;;;;;;;;;2.25;1.00;;;;;8.78;68.84;99284.19;6180225;23;46547;-82
2023/01/09 02:59:31;;;;;;;;;0.00;0.00;;;;;8.53;68.99;99227.19;6179722;23;45768;-81
2023/01/09 03:03:02;;;;;;;;;1.00;0.00;;;;;8.80;68.76;99263.97;6180861;23;45691;-82
2023/01/09 03:05:55;;;;;;;;;1.50;0.50;;;;;8.60;68.86;99233.53;6179124;23;45722;-83
2023/01/09 03:11:49;;;;;;;;;0.75;0.00;;;;;8.30;68.68;99190.00;6176908;23;45600;-83
2023/01/09 03:14:20;;;;;;;;;0.75;0.00;;;;;8.41;68.81;99209.00;6177049;23;45651;-81
2023/01/09 03:16:52;;;;;;;;;0.00;0.00;;;;;8.83;68.71;99282.84;6175956;23;45691;-81
2023/01/09 03:19:21;;;;;;;;;0.50;0.00;;;;;8.82;68.73;99283.78;6176627;23;46889;-82
2023/01/09 03:21:48;;;;;;;;;0.50;0.00;;;;;8.50;68.63;99240.47;6175980;23;46284;-81
2023/01/09 03:27:35;;;;;;;;;2.00;0.75;;;;;8.83;68.71;99287.22;6176470;23;45616;-81
2023/01/09 03:30:00;;;;;;;;;0.50;0.00;;;;;8.72;68.70;99272.47;6247151;22;46221;-80
2023/01/09 03:32:26;;;;;;;;;2.00;1.00;;;;;8.72;68.70;99263.81;6270218;22;47324;-81
2023/01/09 03:34:52;;;;;;;;;4.50;0.00;;;;;8.81;68.63;99296.97;6270228;22;45480;-81
2023/01/09 03:37:17;;;;;;;;;0.00;0.00;;;;;8.80;68.37;99296.13;6271554;22;45631;-81
2023/01/09 03:43:04;;;;;;;;;2.00;1.00;;;;;8.88;68.48;99299.91;6277514;22;45462;-81
2023/01/09 03:45:29;;;;;;;;;2.00;0.00;;;;;8.89;68.33;99298.94;6281143;22;45457;-80
2023/01/09 03:47:57;;;;;;;;;0.25;0.00;;;;;8.88;68.50;99287.66;6278084;22;45537;-80
2023/01/09 03:50:22;;;;;;;;;1.25;0.00;;;;;8.88;68.19;99292.88;6276354;22;47276;-82
2023/01/09 03:52:48;;;;;;;;;1.00;0.00;;;;;8.93;68.38;99293.31;6273104;22;45461;-82
2023/01/09 03:58:34;;;;;;;;;1.00;0.00;;;;;8.92;68.41;99294.28;6273203;22;45446;-82
2023/01/09 04:01:02;;;;;;;;;2.00;0.00;;;;;8.90;68.27;99292.78;6272145;22;46390;-80
2023/01/09 04:03:28;;;;;;;;;0.75;0.25;;;;;8.90;68.56;99298.81;6271835;22;47188;-83
2023/01/09 04:05:53;;;;;;;;;2.00;1.00;;;;;8.94;68.16;99308.03;6271959;22;45534;-83
2023/01/09 04:08:19;;;;;;;;;0.75;0.00;;;;;8.95;68.35;99314.94;6271264;22;45687;-82
2023/01/09 04:14:06;;;;;;;;;0.50;0.25;;;;;8.94;68.13;99328.94;6271846;22;45467;-81
2023/01/09 04:16:31;;;;;;;;;0.75;0.25;;;;;8.96;67.83;99331.44;6285290;22;45498;-82
2023/01/09 04:18:57;;;;;;;;;1.00;0.00;;;;;8.97;68.25;99333.88;6303254;22;45739;-82
2023/01/09 04:21:23;;;;;;;;;0.00;0.00;;;;;8.99;68.15;99342.44;6303732;22;46341;-81
2023/01/09 04:23:48;;;;;;;;;1.00;0.00;;;;;9.02;68.04;99357.00;6303221;22;46083;-82
2023/01/09 04:26:13;;;;;;;;;1.50;0.00;;;;;9.05;68.05;99344.53;6305849;22;45459;-83
2023/01/09 04:28:39;;;;;;;;;1.00;0.00;;;;;9.04;67.98;99345.47;6310005;22;45611;-81
2023/01/09 04:31:04;;;;;;;;;0.25;0.00;;;;;8.97;68.09;99331.28;6309516;22;46389;-83
2023/01/09 04:33:30;;;;;;;;;0.00;0.00;;;;;9.01;67.84;99319.63;6306016;22;46589;-82
2023/01/09 04:35:55;;;;;;;;;0.25;0.00;;;;;9.11;67.95;99324.91;6304801;22;45613;-81
2023/01/09 04:38:21;;;;;;;;;1.00;0.00;;;;;9.11;67.78;99323.13;6303793;22;45538;-83
2023/01/09 04:44:08;;;;;;;;;0.00;0.00;;;;;9.19;67.87;99331.09;6304540;22;45973;-79
2023/01/09 04:46:33;;;;;;;;;0.50;0.00;;;;;9.20;68.04;99340.59;6304664;22;45596;-80
2023/01/09 04:48:58;;;;;;;;;0.00;0.00;;;;;9.21;67.82;99338.81;6275939;22;45940;-80
2023/01/09 04:51:24;;;;;;;;;1.00;1.00;;;;;9.20;67.74;99331.94;6304093;22;45718;-79
2023/01/09 04:53:49;;;;;;;;;0.25;0.00;;;;;9.17;67.45;99346.09;6302059;22;46557;-81
2023/01/09 04:59:36;;;;;;;;;0.75;0.00;;;;;9.15;67.67;99324.50;6303009;22;45716;-79
2023/01/09 05:02:01;;;;;;;;;1.25;0.00;;;;;9.19;67.81;99330.28;6302479;22;47399;-81
2023/01/09 05:04:26;;;;;;;;;0.00;0.00;;;;;9.26;67.81;99342.69;6302595;22;46258;-78
2023/01/09 05:06:52;;;;;;;;;0.00;0.00;;;;;9.23;67.56;99339.53;6304248;22;45507;-82
2023/01/09 05:09:17;;;;;;;;;0.75;0.00;;;;;9.28;67.65;99356.44;6303505;22;45609;-83
2023/01/09 05:11:42;;;;;;;;;0.75;0.00;;;;;9.31;67.63;99350.13;6275554;22;47379;-82
2023/01/09 05:14:08;;;;;;;;;0.75;0.00;;;;;9.30;67.70;99352.88;6306036;22;47105;-78
2023/01/09 05:16:33;;;;;;;;;2.00;0.00;;;;;9.30;67.84;99352.88;6310236;22;45447;-78
2023/01/09 05:18:59;;;;;;;;;2.00;0.00;;;;;9.27;67.70;99343.53;6308001;22;45642;-81
2023/01/09 05:21:25;;;;;;;;;1.00;0.00;;;;;9.29;67.68;99362.50;6304388;22;47186;-80
2023/01/09 05:23:51;;;;;;;;;0.00;0.00;;;;;9.25;67.55;99353.28;6303500;22;45513;-79
2023/01/09 05:29:38;;;;;;;;;0.00;0.00;;;;;9.28;67.46;99355.63;6302798;22;45541;-78
2023/01/09 05:32:03;;;;;;;;;0.75;0.00;;;;;9.28;67.58;99372.13;6302540;22;46242;-80
2023/01/09 05:34:29;;;;;;;;;0.00;0.00;;;;;9.17;67.34;99363.56;6302275;22;46875;-79
2023/01/09 05:36:54;;;;;;;;;1.00;0.00;;;;;9.33;67.18;99391.81;6274600;22;45621;-79
2023/01/09 05:39:20;;;;;;;;;1.00;0.00;;;;;9.27;67.01;99386.16;6303038;22;45515;-82
2023/01/09 05:45:08;;;;;;;;;0.00;0.00;;;;;9.30;66.92;99405.13;6302604;22;45672;-79
2023/01/09 05:47:33;;;;;;;;;0.00;0.00;;;;;9.25;66.88;99401.13;6302970;22;45545;-79
2023/01/09 05:49:59;;;;;;;;;0.25;0.00;;;;;9.24;66.60;99394.25;6302447;22;45514;-81
2023/01/09 05:52:26;;;;;;;;;1.00;0.00;;;;;9.26;66.22;99400.19;6303223;22;45554;-82
2023/01/09 05:54:51;;;;;;;;;0.00;0.00;;;;;9.26;66.42;99401.97;6304387;22;46855;-82
2023/01/09 05:57:16;;;;;;;;;0.00;0.00;;;;;9.24;66.39;99409.94;6305357;22;45656;-79
2023/01/09 05:59:42;;;;;;;;;0.00;0.00;;;;;9.25;66.37;99414.22;6308726;22;45673;-82
2023/01/09 06:02:07;;;;;;;;;0.00;0.00;;;;;9.17;66.31;99403.59;6309851;22;47018;-81
2023/01/09 06:04:32;;;;;;;;;0.50;0.00;;;;;9.26;66.29;99418.47;6310253;22;45986;-80
2023/01/09 06:06:58;;;;;;;;;0.00;0.00;;;;;9.25;66.12;99424.66;6308733;22;45539;-82
2023/01/09 06:09:23;;;;;;;;;1.00;0.00;;;;;9.27;66.23;99420.13;6276199;22;45841;-81
2023/01/09 06:15:10;;;;;;;;;0.75;0.00;;;;;9.24;65.74;99411.72;6303138;22;45613;-83
2023/01/09 06:17:36;;;;;;;;;0.00;0.00;;;;;9.16;65.75;99408.94;6270143;22;45676;-85
2023/01/09 06:20:01;;;;;;;;;1.25;0.00;;;;;9.20;65.67;99418.16;6269869;22;45713;-82
2023/01/09 06:22:27;;;;;;;;;1.50;0.00;;;;;9.12;65.99;99404.94;6269389;22;48290;-80
2023/01/09 06:24:53;;;;;;;;;0.00;0.00;;;;;9.15;65.44;99421.16;6270694;22;46381;-80
2023/01/09 06:30:40;;;;;;;;;1.00;0.00;;;;;9.17;65.48;99450.63;6272260;22;45714;-84
2023/01/09 06:33:05;;;;;;;;;0.00;0.00;;;;;9.16;65.39;99441.13;6271869;22;45521;-79
2023/01/09 06:35:31;;;;;;;;;0.00;0.00;;;;;9.14;65.18;99457.88;6272156;22;46144;-80
2023/01/09 06:37:58;;;;;;;;;0.00;0.00;;;;;9.08;64.88;99443.53;6275345;22;45688;-83
2023/01/09 06:40:23;;;;;;;;;0.00;0.00;;;;;9.12;64.99;99450.16;6278964;22;45521;-81
2023/01/09 06:42:49;;;;;;;;;1.00;0.00;;;;;9.00;64.89;99448.59;6277452;22;46447;-82
2023/01/09 06:45:15;;;;;;;;;1.00;0.00;;;;;9.12;64.73;99471.06;6278779;22;46201;-84
2023/01/09 06:47:40;;;;;;;;;1.25;0.00;;;;;9.07;65.04;99472.41;6277507;22;45910;-81
2023/01/09 06:50:08;;;;;;;;;1.00;0.00;;;;;9.04;64.82;99462.22;6277418;22;45528;-83
2023/01/09 06:52:34;;;;;;;;;0.00;0.00;;;;;9.13;64.84;99475.31;6274539;22;46300;-84
2023/01/09 06:54:59;;;;;;;;;1.00;0.00;;;;;9.13;64.63;99480.56;6273374;22;45608;-83
2023/01/09 07:00:48;;;;;;;;;0.00;0.00;;;;;9.15;64.42;99491.72;6271331;22;45631;-83
2023/01/09 07:03:18;;;;;;;;;0.00;0.00;;;;;9.13;64.51;99496.22;6269338;22;47283;-85
2023/01/09 07:05:45;;;;;;;;;1.00;0.00;;;;;9.04;64.31;99481.31;6271504;22;45884;-83
2023/01/09 07:08:10;;;;;;;;;0.00;0.00;;;;;9.10;64.50;99506.13;6271505;22;45473;-80
2023/01/09 07:10:35;;;;;;;;;0.00;0.00;;;;;9.07;64.17;99507.19;6271397;22;45875;-82
2023/01/09 07:16:23;;;;;;;;;0.00;0.00;;;;;9.08;64.53;99508.84;6283913;22;45596;-76
2023/01/09 07:18:48;;;;;;;;;0.00;0.00;;;;;9.07;64.74;99504.56;6302241;22;45610;-75
2023/01/09 07:21:13;;;;;;;;;0.75;0.00;;;;;9.06;64.44;99496.88;6275337;22;45542;-75
2023/01/09 07:23:39;;;;;;;;;0.00;0.00;;;;;9.12;64.14;99507.63;6302624;22;47283;-77
2023/01/09 07:26:04;;;;;;;;;0.00;0.00;;;;;9.11;64.20;99506.00;6302330;22;47146;-76
2023/01/09 07:28:29;;;;;;;;;0.00;0.00;;;;;9.05;64.13;99503.88;6302850;22;45467;-75
2023/01/09 07:30:55;;;;;;;;;1.00;0.00;;;;;9.10;63.84;99508.72;6302491;22;45409;-75
2023/01/09 07:33:20;;;;;;;;;0.00;0.00;;;;;9.08;63.79;99513.25;6302421;22;47375;-75
2023/01/09 07:35:45;;;;;;;;;0.00;0.00;;;;;9.08;63.72;99518.47;6304361;22;46183;-75
2023/01/09 07:38:11;;;;;;;;;1.00;0.00;;;;;9.07;63.68;99512.41;6305282;22;45558;-78
2023/01/09 07:40:37;;;;;;;;;0.25;0.00;;;;;9.04;63.72;99541.41;6303377;22;45663;-75
2023/01/09 07:46:24;;;;;;;;;0.00;0.00;;;;;8.99;63.80;99517.44;6302443;22;45447;-76
2023/01/09 07:48:49;;;;;;;;;0.00;0.00;;;;;9.01;63.67;99530.41;6302226;22;45454;-75
2023/01/09 07:51:15;;;;;;;;;0.00;0.00;;;;;8.94;63.51;99526.63;6303349;22;45501;-74
2023/01/09 07:53:40;;;;;;;;;0.00;0.00;;;;;8.99;63.82;99545.34;6302357;22;46329;-75
2023/01/09 07:56:06;;;;;;;;;0.00;0.00;;;;;8.97;63.58;99550.69;6302749;22;45437;-75
2023/01/09 08:01:52;;;;;;;;;1.75;0.00;;;;;8.92;63.93;99565.06;6303207;22;45572;-75
2023/01/09 08:04:18;;;;;;;;;0.00;0.00;;;;;8.93;63.99;99578.03;6302780;22;45679;-75
2023/01/09 08:06:43;;;;;;;;;1.25;0.00;;;;;8.87;63.68;99562.00;6302887;22;46321;-76
2023/01/09 08:09:09;;;;;;;;;0.00;0.00;;;;;8.92;63.60;99580.75;6302974;22;45530;-75
2023/01/09 08:11:34;;;;;;;;;0.00;0.00;;;;;8.90;63.65;99582.69;6303514;22;45500;-74
2023/01/09 08:14:00;;;;;;;;;0.00;0.00;;;;;8.88;63.42;99577.56;6302826;22;45750;-75
2023/01/09 08:16:25;;;;;;;;;1.00;0.00;;;;;8.84;63.52;99578.78;6303125;22;46239;-74
2023/01/09 08:18:50;;;;;;;;;0.00;0.00;;;;;8.81;63.73;99566.78;6303300;22;45594;-73
2023/01/09 08:21:16;;;;;;;;;0.00;0.00;;;;;8.85;63.77;99593.50;6277879;22;45936;-74
2023/01/09 08:23:41;;;;;;;;;0.00;0.00;;;;;8.72;63.52;99566.69;6308587;22;45620;-77
2023/01/09 08:26:06;;;;;;;;;0.25;0.00;;;;;8.78;63.48;99589.72;6306499;22;46222;-75
2023/01/09 08:28:32;;;;;;;;;0.00;0.00;;;;;8.81;63.70;99598.13;6303757;22;45530;-76
2023/01/09 08:30:57;;;;;;;;;0.00;0.00;;;;;8.85;63.64;99603.94;6304498;22;45534;-76
2023/01/09 08:33:22;;;;;;;;;1.00;0.00;;;;;8.79;63.84;99600.03;6305054;22;46253;-75
2023/01/09 08:35:48;;;;;;;;;0.00;0.00;;;;;8.79;63.42;99607.03;6302308;22;46010;-74
2023/01/09 08:38:13;;;;;;;;;0.00;0.00;;;;;8.79;63.47;99605.25;6300107;22;45691;-75
2023/01/09 08:40:39;;;;;;;;;0.00;0.00;;;;;8.86;63.41;99600.34;6303332;22;45550;-75
2023/01/09 08:48:32;;;;;;;;;0.75;0.00;;;;;8.83;63.37;99616.28;6302411;22;45419;-75
2023/01/09 08:50:57;;;;;;;;;0.00;0.00;;;;;8.77;63.44;99614.16;6302420;22;45447;-75
2023/01/09 08:53:23;;;;;;;;;0.00;0.00;;;;;8.82;63.18;99646.78;6301998;22;46205;-77
2023/01/09 08:55:48;;;;;;;;;0.00;0.00;;;;;8.76;63.26;99620.31;6301833;22;47002;-75
2023/01/09 08:58:13;;;;;;;;;1.00;0.00;;;;;8.74;63.61;99641.34;6302158;22;45612;-78
2023/01/09 09:00:39;;;;;;;;;0.00;0.00;;;;;8.78;63.56;99636.72;6302330;22;45481;-76
2023/01/09 09:03:04;;;;;;;;;0.00;0.00;;;;;8.78;63.64;99636.72;6303135;22;46729;-77
2023/01/09 09:05:31;;;;;;;;;0.00;0.00;;;;;8.69;63.36;99645.28;6302723;22;47049;-76
2023/01/09 09:07:57;;;;;;;;;0.00;0.00;;;;;8.76;63.47;99656.88;6304739;22;45503;-74
2023/01/09 09:10:25;;;;;;;;;0.00;0.00;;;;;8.76;63.48;99654.28;6303656;22;45428;-76
2023/01/09 09:12:52;;;;;;;;;0.00;0.00;;;;;8.72;63.44;99648.47;6302591;22;47453;-74
2023/01/09 09:15:25;;;;;;;;;0.00;0.00;;;;;8.78;63.51;99666.28;6302635;22;45927;-75
2023/01/09 09:17:53;;;;;;;;;0.00;0.00;;;;;8.78;63.40;99681.09;6301655;22;45816;-76
2023/01/09 09:20:18;;;;;;;;;0.00;0.00;;;;;8.73;63.31;99676.25;6302848;22;45566;-74
2023/01/09 09:22:45;;;;;;;;;0.00;0.00;;;;;8.74;63.55;99693.59;6302029;22;46711;-76
2023/01/09 09:25:13;;;;;;;;;0.00;0.00;;;;;8.73;63.32;99709.38;6274514;22;47026;-76
2023/01/09 09:27:39;;;;;;;;;0.00;0.00;;;;;8.67;63.29;99694.16;6302572;22;45814;-75
2023/01/09 09:30:05;;;;;;;;;0.25;0.00;;;;;8.74;63.25;99695.38;6302511;22;45523;-77
2023/01/09 09:32:31;;;;;;;;;0.00;0.00;;;;;8.76;63.26;99703.88;6274064;22;46415;-74
2023/01/09 09:34:56;;;;;;;;;0.00;0.00;;;;;8.76;63.45;99714.34;6302319;22;45789;-76
2023/01/09 09:37:22;;;;;;;;;0.00;0.00;;;;;8.72;63.31;99695.47;6301005;22;45518;-75
2023/01/09 09:39:47;;;;;;;;;0.00;0.00;;;;;8.76;63.38;99717.78;6274582;22;45585;-76
2023/01/09 09:48:50;;;;;;;;;0.00;0.00;;;;;8.77;63.17;99726.44;6302583;22;45614;-76
2023/01/09 09:51:28;;;;;;;;;0.00;0.00;;;;;8.79;63.59;99735.84;6302499;22;45623;-75
2023/01/09 09:54:04;;;;;;;;;0.00;0.00;;;;;8.78;63.46;99742.00;6301798;22;47435;-75
2023/01/09 09:56:35;;;;;;;;;0.00;0.00;;;;;8.82;63.37;99745.19;6302277;22;46825;-75
2023/01/09 09:59:13;;;;;;;;;0.00;0.00;;;;;8.83;63.43;99755.53;6302489;22;45515;-74
2023/01/09 10:01:43;;;;;;;;;0.00;0.00;;;;;8.83;63.62;99763.38;6302675;22;45678;-75
2023/01/09 10:04:13;;;;;;;;;0.00;0.00;;;;;8.84;63.15;99761.59;6302295;22;45538;-74
2023/01/09 10:06:43;;;;;;;;;0.00;0.00;;;;;8.87;63.45;99771.78;6301728;22;46048;-75
2023/01/09 10:09:39;;;;;;;;;0.00;0.00;;;;;8.94;63.26;99779.97;6302111;22;45601;-76
2023/01/09 10:12:04;;;;;;;;;0.00;0.00;;;;;8.99;63.08;99780.47;6302917;22;45369;-75
2023/01/09 10:14:30;;;;;;;;;0.00;0.00;;;;;9.04;63.16;99797.44;6302737;22;47228;-74
2023/01/09 10:17:20;;;;;;;;;0.00;0.00;;;;;9.07;62.97;99791.16;6302460;22;46737;-75
2023/01/09 10:20:10;;;;;;;;;0.00;0.00;;;;;9.07;62.86;99797.19;6302278;22;45784;-73
2023/01/09 10:22:57;;;;;;;;;0.00;0.00;;;;;9.06;62.61;99786.88;6303021;22;45691;-74
2023/01/09 10:25:34;;;;;;;;;0.00;0.00;;;;;9.05;62.91;99811.34;6301475;22;47212;-76
2023/01/09 10:31:52;;;;;;;;;1.00;0.00;;;;;9.07;62.78;99805.03;6302205;22;45506;-73
2023/01/09 10:34:37;;;;;;;;;0.00;0.00;;;;;9.10;62.50;99827.47;6274075;22;45491;-74
2023/01/09 10:37:12;;;;;;;;;0.00;0.00;;;;;9.09;62.63;99831.88;6302514;22;45530;-74
2023/01/09 10:39:47;;;;;;;;;0.00;0.00;;;;;9.14;62.71;99806.22;6302467;22;45921;-75
2023/01/09 10:42:29;;;;;;;;;0.00;0.00;;;;;9.17;62.31;99829.50;6302404;22;45416;-74
2023/01/09 10:48:25;;;;;;;;;0.00;0.00;;;;;9.21;62.38;99811.81;6301837;22;45623;-75
2023/01/09 10:50:54;;;;;;;;;0.00;0.00;;;;;9.29;62.21;99838.16;6301777;22;47489;-75
2023/01/09 10:53:23;;;;;;;;;0.00;0.00;;;;;9.25;62.06;99814.06;6302389;22;45470;-74
2023/01/09 10:55:54;;;;;;;;;1.00;0.00;;;;;9.43;61.80;99832.69;6301284;22;45554;-76
2023/01/09 10:58:21;;;;;;;;;0.00;0.00;;;;;9.48;61.79;99829.72;6300578;22;47484;-75
2023/01/09 11:00:49;;;;;;;;;0.00;0.00;;;;;9.50;61.42;99830.44;6302137;22;45832;-76
2023/01/09 11:03:20;;;;;;;;;0.00;0.00;;;;;9.53;61.47;99825.78;6302173;22;45653;-75
2023/01/09 11:05:54;;;;;;;;;0.00;0.00;;;;;9.47;61.53;99815.81;6301544;22;45668;-75
2023/01/09 11:08:41;;;;;;;;;0.00;0.00;;;;;9.60;61.39;99853.13;6300916;22;46370;-76
2023/01/09 11:11:08;;;;;;;;;1.00;0.00;;;;;9.63;61.75;99850.25;6301289;22;46284;-75
2023/01/09 11:13:35;;;;;;;;;0.00;0.00;;;;;9.64;61.45;99832.78;6301111;22;45499;-75
2023/01/09 11:16:22;;;;;;;;;0.00;0.00;;;;;9.69;61.46;99844.53;6268041;22;45687;-75
2023/01/09 11:19:00;;;;;;;;;0.00;0.00;;;;;9.72;61.19;99850.50;6268115;22;46641;-75
2023/01/09 11:21:36;;;;;;;;;1.00;0.00;;;;;9.69;61.05;99834.06;6269943;22;47077;-74
2023/01/09 11:24:26;;;;;;;;;0.00;0.00;;;;;9.69;61.03;99835.84;6270455;22;45473;-76
2023/01/09 11:27:13;;;;;;;;;0.00;0.00;;;;;9.72;61.03;99840.81;6294219;22;45548;-74
2023/01/09 11:29:40;;;;;;;;;0.00;0.00;;;;;9.65;60.74;99837.91;6247001;22;48406;-75
2023/01/09 11:32:20;;;;;;;;;0.00;0.00;;;;;9.78;60.78;99849.97;6270656;22;45990;-75
2023/01/09 11:34:46;;;;;;;;;0.00;0.00;;;;;9.74;60.82;99838.94;6269833;22;45623;-75
2023/01/09 11:37:23;;;;;;;;;0.00;0.00;;;;;9.78;60.75;99835.09;6270424;22;45481;-75
2023/01/09 11:39:49;;;;;;;;;0.00;0.00;;;;;9.70;60.96;99842.75;6270592;22;45636;-75
2023/01/09 11:43:04;;;;;;;;;0.75;0.00;;;;;9.74;60.90;99840.72;6243239;22;46029;-74
2023/01/09 11:45:25;;;;;;;;;0.00;0.00;;;;;9.74;60.47;99845.94;6256919;22;45710;-73
2023/01/09 11:47:50;;;;;;;;;0.00;0.00;;;;;9.75;60.71;99858.91;6268628;22;45530;-75
2023/01/09 11:50:16;;;;;;;;;0.00;0.00;;;;;9.77;60.55;99867.44;6272322;22;47223;-74
2023/01/09 11:52:41;;;;;;;;;0.00;0.00;;;;;9.78;60.69;99855.19;6271309;22;46990;-75
2023/01/09 11:55:12;;;;;;;;;0.00;0.00;;;;;9.78;60.32;99866.50;6270819;22;45662;-75
2023/01/09 11:57:38;;;;;;;;;0.25;0.00;;;;;9.83;60.64;99853.06;6273294;22;45454;-74
2023/01/09 12:00:23;;;;;;;;;1.00;0.00;;;;;9.88;60.43;99859.56;6273010;22;45886;-75
2023/01/09 12:02:54;;;;;;;;;0.50;0.50;;;;;9.95;60.52;99865.16;6272439;22;45802;-74
2023/01/09 12:05:38;;;;;;;;;0.00;0.00;;;;;9.98;60.30;99876.22;6271342;22;45463;-76
2023/01/09 12:08:13;;;;;;;;;0.00;0.00;;;;;10.01;60.36;99872.50;6270276;22;45454;-75
2023/01/09 12:11:01;;;;;;;;;1.25;1.00;;;;;10.02;60.13;99876.81;6272233;22;45533;-75
2023/01/09 12:16:58;;;;;;;;;0.00;0.00;;;;;9.82;64.47;99883.63;6290609;22;45368;-74
2023/01/09 12:19:26;;;;;;;;;0.00;0.00;;;;;9.73;66.27;99880.91;6304006;22;45506;-75
2023/01/09 12:22:01;;;;;;;;;1.00;0.00;;;;;9.59;66.78;99902.91;6304539;22;46430;-74
2023/01/09 12:24:40;;;;;;;;;2.00;0.00;;;;;9.45;66.23;99893.53;6303576;22;45937;-75
2023/01/09 12:27:45;;;;;;;;;0.25;0.00;;;;;9.43;67.09;99898.06;6302793;22;45681;-74
2023/01/09 12:34:00;;;;;;;;;0.00;0.00;;;;;9.51;66.06;99884.38;6302225;22;45558;-76
2023/01/09 12:36:57;;;;;;;;;0.00;0.00;;;;;9.53;65.79;99888.53;6302059;22;46007;-76
2023/01/09 12:39:43;;;;;;;;;0.00;0.00;;;;;9.68;65.29;99891.72;6302642;22;45424;-75
2023/01/09 12:42:32;;;;;;;;;0.00;0.00;;;;;9.79;66.28;99903.97;6274654;22;45962;-76
2023/01/09 12:45:06;;;;;;;;;0.00;0.00;;;;;9.80;65.62;99911.69;6302468;22;46385;-76
2023/01/09 12:47:51;;;;;;;;;1.00;0.00;;;;;9.81;66.62;99908.13;6301727;22;45691;-75
2023/01/09 12:50:48;;;;;;;;;1.75;0.00;;;;;9.83;65.06;99898.34;6302830;22;45692;-76
2023/01/09 12:53:21;;;;;;;;;0.00;0.00;;;;;9.86;65.25;99916.44;6275218;22;45521;-75
2023/01/09 12:55:59;;;;;;;;;0.75;0.00;;;;;9.86;65.54;99919.06;6302335;22;46293;-74
2023/01/09 12:58:35;;;;;;;;;0.25;0.00;;;;;9.89;65.05;99920.59;6302371;22;46269;-75
2023/01/09 13:01:07;;;;;;;;;0.00;0.00;;;;;9.90;64.62;99930.09;6302112;22;45468;-76
2023/01/09 13:03:47;;;;;;;;;0.00;0.00;;;;;9.92;64.80;99938.66;6302165;22;45846;-75
2023/01/09 13:06:18;;;;;;;;;0.00;0.00;;;;;9.90;65.53;99951.88;6301988;22;46188;-76
2023/01/09 13:09:17;;;;;;;;;0.50;0.00;;;;;9.85;65.27;99945.34;6301666;22;46356;-75
2023/01/09 13:11:53;;;;;;;;;0.50;0.00;;;;;9.74;65.47;99948.78;6302709;22;45576;-76
2023/01/09 13:17:45;;;;;;;;;0.00;0.00;;;;;9.56;65.46;99956.28;6297712;22;45881;-75
2023/01/09 13:20:47;;;;;;;;;0.25;0.25;;;;;9.52;65.61;99948.78;6274653;22;46900;-76
2023/01/09 13:23:17;;;;;;;;;0.00;0.00;;;;;9.47;65.42;99962.22;6302835;22;45440;-75
2023/01/09 13:25:50;;;;;;;;;0.00;0.00;;;;;9.44;65.48;99954.63;6301589;22;45591;-76
2023/01/09 13:28:45;;;;;;;;;0.00;0.00;;;;;9.40;65.62;99961.03;6301669;22;46403;-76
2023/01/09 13:31:38;;;;;;;;;0.00;0.00;;;;;9.43;65.95;99986.09;6301796;22;47026;-77
2023/01/09 13:34:10;;;;;;;;;0.00;0.00;;;;;9.37;65.33;99966.50;6301613;22;45903;-77
2023/01/09 13:36:38;;;;;;;;;0.25;0.00;;;;;9.43;65.55;99970.44;6275854;22;45884;-75
2023/01/09 13:39:05;;;;;;;;;0.00;0.00;;;;;9.42;65.40;99977.44;6301585;22;47421;-75